sensor_id;sensor_type;location;lat;lon;timestamp;pressure;altitude;pressure_sealevel;temperature;humidity
14383;BME280;7275;50.328;8.720;2023-04-22T00:00:18;99084.78;;;17.88;41.48
14383;BME280;7275;50.328;8.720;2023-04-22T00:02:46;99088.31;;;17.88;41.45
14383;BME280;7275;50.328;8.720;2023-04-22T00:05:14;99088.44;;;17.87;41.60
14383;BME280;7275;50.328;8.720;2023-04-22T00:07:47;99086.97;;;17.83;41.70
14383;BME280;7275;50.328;8.720;2023-04-22T00:10:14;99081.00;;;17.79;41.64
14383;BME280;7275;50.328;8.720;2023-04-22T00:12:42;99088.31;;;17.77;41.88
14383;BME280;7275;50.328;8.720;2023-04-22T00:15:10;99077.81;;;17.74;41.87
14383;BME280;7275;50.328;8.720;2023-04-22T00:17:38;99087.78;;;17.72;42.17
14383;BME280;7275;50.328;8.720;2023-04-22T00:20:07;99079.88;;;17.71;42.15
14383;BME280;7275;50.328;8.720;2023-04-22T00:22:36;99075.50;;;17.70;42.22
14383;BME280;7275;50.328;8.720;2023-04-22T00:25:06;99084.25;;;17.72;42.32
14383;BME280;7275;50.328;8.720;2023-04-22T00:27:33;99069.94;;;17.73;42.12
14383;BME280;7275;50.328;8.720;2023-04-22T00:30:01;99063.94;;;17.69;41.99
14383;BME280;7275;50.328;8.720;2023-04-22T00:32:29;99069.06;;;17.72;42.39
14383;BME280;7275;50.328;8.720;2023-04-22T00:34:56;99081.84;;;17.69;42.48
14383;BME280;7275;50.328;8.720;2023-04-22T00:37:23;99082.03;;;17.66;42.58
14383;BME280;7275;50.328;8.720;2023-04-22T00:39:51;99074.28;;;17.63;42.41
14383;BME280;7275;50.328;8.720;2023-04-22T00:42:20;99073.63;;;17.59;42.47
14383;BME280;7275;50.328;8.720;2023-04-22T00:44:48;99071.31;;;17.54;42.63
14383;BME280;7275;50.328;8.720;2023-04-22T00:47:17;99071.69;;;17.50;42.70
14383;BME280;7275;50.328;8.720;2023-04-22T00:49:47;99073.50;;;17.49;42.79
14383;BME280;7275;50.328;8.720;2023-04-22T00:52:15;99080.75;;;17.47;42.82
14383;BME280;7275;50.328;8.720;2023-04-22T00:54:43;99079.03;;;17.46;42.99
14383;BME280;7275;50.328;8.720;2023-04-22T00:57:12;99076.47;;;17.45;43.00
14383;BME280;7275;50.328;8.720;2023-04-22T00:59:41;99067.59;;;17.44;43.01
14383;BME280;7275;50.328;8.720;2023-04-22T01:02:08;99074.75;;;17.44;42.96
14383;BME280;7275;50.328;8.720;2023-04-22T01:04:37;99071.25;;;17.43;42.96
14383;BME280;7275;50.328;8.720;2023-04-22T01:07:04;99074.00;;;17.42;43.11
14383;BME280;7275;50.328;8.720;2023-04-22T01:09:32;99076.81;;;17.40;43.09
14383;BME280;7275;50.328;8.720;2023-04-22T01:12:00;99071.34;;;17.42;43.04
14383;BME280;7275;50.328;8.720;2023-04-22T01:14:27;99074.75;;;17.44;43.17
14383;BME280;7275;50.328;8.720;2023-04-22T01:16:57;99074.75;;;17.44;43.22
14383;BME280;7275;50.328;8.720;2023-04-22T01:19:24;99076.34;;;17.46;43.23
14383;BME280;7275;50.328;8.720;2023-04-22T01:21:55;99073.69;;;17.46;43.10
14383;BME280;7275;50.328;8.720;2023-04-22T01:24:24;99077.09;;;17.48;43.23
14383;BME280;7275;50.328;8.720;2023-04-22T01:26:52;99070.91;;;17.48;43.25
14383;BME280;7275;50.328;8.720;2023-04-22T01:29:20;99069.41;;;17.44;43.14
14383;BME280;7275;50.328;8.720;2023-04-22T01:31:47;99075.41;;;17.47;43.19
14383;BME280;7275;50.328;8.720;2023-04-22T01:34:15;99073.81;;;17.45;43.14
14383;BME280;7275;50.328;8.720;2023-04-22T01:36:43;99067.72;;;17.43;43.04
14383;BME280;7275;50.328;8.720;2023-04-22T01:39:10;99069.53;;;17.42;43.23
14383;BME280;7275;50.328;8.720;2023-04-22T01:41:39;99070.53;;;17.41;43.30
14383;BME280;7275;50.328;8.720;2023-04-22T01:44:07;99075.75;;;17.43;43.41
14383;BME280;7275;50.328;8.720;2023-04-22T01:46:34;99080.00;;;17.45;43.12
14383;BME280;7275;50.328;8.720;2023-04-22T01:49:02;99081.38;;;17.51;43.18
14383;BME280;7275;50.328;8.720;2023-04-22T01:51:30;99082.63;;;17.58;43.14
14383;BME280;7275;50.328;8.720;2023-04-22T01:53:58;99079.72;;;17.61;43.23
14383;BME280;7275;50.328;8.720;2023-04-22T01:56:25;99079.50;;;17.64;43.08
14383;BME280;7275;50.328;8.720;2023-04-22T01:58:54;99081.09;;;17.67;43.16
14383;BME280;7275;50.328;8.720;2023-04-22T02:01:21;99077.69;;;17.65;43.05
14383;BME280;7275;50.328;8.720;2023-04-22T02:03:49;99077.69;;;17.65;43.00
14383;BME280;7275;50.328;8.720;2023-04-22T02:06:17;99082.28;;;17.63;42.89
14383;BME280;7275;50.328;8.720;2023-04-22T02:08:44;99088.47;;;17.63;43.01
14383;BME280;7275;50.328;8.720;2023-04-22T02:11:12;99085.94;;;17.62;43.04
14383;BME280;7275;50.328;8.720;2023-04-22T02:13:40;99093.00;;;17.63;43.23
14383;BME280;7275;50.328;8.720;2023-04-22T02:16:08;99094.69;;;17.64;42.99
14383;BME280;7275;50.328;8.720;2023-04-22T02:18:36;99092.88;;;17.64;43.30
14383;BME280;7275;50.328;8.720;2023-04-22T02:21:04;99095.41;;;17.66;43.14
14383;BME280;7275;50.328;8.720;2023-04-22T02:23:32;99097.97;;;17.67;43.13
14383;BME280;7275;50.328;8.720;2023-04-22T02:25:59;99090.94;;;17.66;42.95
14383;BME280;7275;50.328;8.720;2023-04-22T02:28:28;99087.28;;;17.67;43.10
14383;BME280;7275;50.328;8.720;2023-04-22T02:30:56;99084.59;;;17.67;43.15
14383;BME280;7275;50.328;8.720;2023-04-22T02:33:25;99078.44;;;17.67;43.11
14383;BME280;7275;50.328;8.720;2023-04-22T02:35:52;99080.44;;;17.63;43.11
14383;BME280;7275;50.328;8.720;2023-04-22T02:38:20;99072.03;;;17.56;43.39
14383;BME280;7275;50.328;8.720;2023-04-22T02:40:47;99078.72;;;17.51;43.24
14383;BME280;7275;50.328;8.720;2023-04-22T02:43:15;99077.94;;;17.49;43.37
14383;BME280;7275;50.328;8.720;2023-04-22T02:45:42;99072.59;;;17.49;43.49
14383;BME280;7275;50.328;8.720;2023-04-22T02:48:10;99078.84;;;17.49;43.26
14383;BME280;7275;50.328;8.720;2023-04-22T02:50:39;99083.28;;;17.49;43.33
14383;BME280;7275;50.328;8.720;2023-04-22T02:53:07;99083.28;;;17.49;43.33
14383;BME280;7275;50.328;8.720;2023-04-22T02:55:34;99087.78;;;17.48;43.27
14383;BME280;7275;50.328;8.720;2023-04-22T02:58:02;99091.44;;;17.47;43.69
14383;BME280;7275;50.328;8.720;2023-04-22T03:00:29;99089.53;;;17.49;43.36
14383;BME280;7275;50.328;8.720;2023-04-22T03:02:57;99087.72;;;17.50;43.29
14383;BME280;7275;50.328;8.720;2023-04-22T03:05:25;99093.97;;;17.49;43.55
14383;BME280;7275;50.328;8.720;2023-04-22T03:07:53;99089.63;;;17.48;43.54
14383;BME280;7275;50.328;8.720;2023-04-22T03:10:21;99092.50;;;17.45;43.63
14383;BME280;7275;50.328;8.720;2023-04-22T03:12:48;99090.91;;;17.42;43.53
14383;BME280;7275;50.328;8.720;2023-04-22T03:15:16;99096.50;;;17.39;43.62
14383;BME280;7275;50.328;8.720;2023-04-22T03:17:46;99088.81;;;17.35;43.52
14383;BME280;7275;50.328;8.720;2023-04-22T03:20:14;99094.38;;;17.32;43.63
14383;BME280;7275;50.328;8.720;2023-04-22T03:22:42;99083.28;;;17.25;43.57
14383;BME280;7275;50.328;8.720;2023-04-22T03:25:11;99081.94;;;17.20;43.77
14383;BME280;7275;50.328;8.720;2023-04-22T03:27:38;99074.38;;;17.14;43.62
14383;BME280;7275;50.328;8.720;2023-04-22T03:30:07;99073.78;;;17.10;44.01
14383;BME280;7275;50.328;8.720;2023-04-22T03:32:34;99068.63;;;17.07;44.02
14383;BME280;7275;50.328;8.720;2023-04-22T03:35:02;99080.38;;;17.05;43.99
14383;BME280;7275;50.328;8.720;2023-04-22T03:37:30;99083.41;;;17.00;43.90
14383;BME280;7275;50.328;8.720;2023-04-22T03:39:57;99080.09;;;16.97;43.98
14383;BME280;7275;50.328;8.720;2023-04-22T03:42:26;99081.28;;;16.93;44.13
14383;BME280;7275;50.328;8.720;2023-04-22T03:44:53;99078.75;;;16.91;44.11
14383;BME280;7275;50.328;8.720;2023-04-22T03:47:21;99077.88;;;16.91;44.00
14383;BME280;7275;50.328;8.720;2023-04-22T03:49:48;99078.63;;;16.93;43.98
14383;BME280;7275;50.328;8.720;2023-04-22T03:52:16;99082.28;;;16.92;44.10
14383;BME280;7275;50.328;8.720;2023-04-22T03:54:43;99075.22;;;16.91;44.18
14383;BME280;7275;50.328;8.720;2023-04-22T03:57:11;99078.00;;;16.89;44.10
14383;BME280;7275;50.328;8.720;2023-04-22T03:59:39;99074.69;;;16.86;44.24
14383;BME280;7275;50.328;8.720;2023-04-22T04:02:07;99077.72;;;16.81;44.20
14383;BME280;7275;50.328;8.720;2023-04-22T04:04:35;99076.97;;;16.79;44.37
14383;BME280;7275;50.328;8.720;2023-04-22T04:07:03;99080.72;;;16.76;44.29
14383;BME280;7275;50.328;8.720;2023-04-22T04:09:31;99084.44;;;16.74;44.30
14383;BME280;7275;50.328;8.720;2023-04-22T04:11:58;99086.38;;;16.72;44.41
14383;BME280;7275;50.328;8.720;2023-04-22T04:14:26;99088.19;;;16.71;44.44
14383;BME280;7275;50.328;8.720;2023-04-22T04:16:55;99081.25;;;16.69;44.59
14383;BME280;7275;50.328;8.720;2023-04-22T04:19:22;99096.31;;;16.70;44.53
14383;BME280;7275;50.328;8.720;2023-04-22T04:21:50;99087.31;;;16.71;44.61
14383;BME280;7275;50.328;8.720;2023-04-22T04:24:17;99089.66;;;16.75;44.32
14383;BME280;7275;50.328;8.720;2023-04-22T04:26:45;99085.00;;;16.79;44.64
14383;BME280;7275;50.328;8.720;2023-04-22T04:29:14;99087.09;;;16.87;44.49
14383;BME280;7275;50.328;8.720;2023-04-22T04:31:41;99085.91;;;16.91;44.36
14383;BME280;7275;50.328;8.720;2023-04-22T04:34:10;99079.38;;;16.95;44.44
14383;BME280;7275;50.328;8.720;2023-04-22T04:36:38;99080.84;;;16.99;44.07
14383;BME280;7275;50.328;8.720;2023-04-22T04:39:06;99073.44;;;17.02;44.10
14383;BME280;7275;50.328;8.720;2023-04-22T04:41:34;99073.97;;;17.07;44.28
14383;BME280;7275;50.328;8.720;2023-04-22T04:44:04;99070.13;;;17.11;43.98
14383;BME280;7275;50.328;8.720;2023-04-22T04:46:31;99068.91;;;17.15;44.17
14383;BME280;7275;50.328;8.720;2023-04-22T04:48:59;99072.97;;;17.21;43.94
14383;BME280;7275;50.328;8.720;2023-04-22T04:51:28;99063.66;;;17.26;43.89
14383;BME280;7275;50.328;8.720;2023-04-22T04:53:57;99065.97;;;17.31;43.76
14383;BME280;7275;50.328;8.720;2023-04-22T04:56:25;99069.38;;;17.33;43.85
14383;BME280;7275;50.328;8.720;2023-04-22T04:58:52;99067.44;;;17.35;43.71
14383;BME280;7275;50.328;8.720;2023-04-22T05:01:20;99067.13;;;17.39;43.74
14383;BME280;7275;50.328;8.720;2023-04-22T05:03:47;99075.75;;;17.43;43.80
14383;BME280;7275;50.328;8.720;2023-04-22T05:06:15;99061.19;;;17.47;43.79
14383;BME280;7275;50.328;8.720;2023-04-22T05:08:44;99074.97;;;17.53;43.65
14383;BME280;7275;50.328;8.720;2023-04-22T05:11:11;99065.00;;;17.55;43.71
14383;BME280;7275;50.328;8.720;2023-04-22T05:13:39;99068.06;;;17.62;43.75
14383;BME280;7275;50.328;8.720;2023-04-22T05:16:06;99072.22;;;17.66;43.52
14383;BME280;7275;50.328;8.720;2023-04-22T05:18:34;99070.41;;;17.67;43.39
14383;BME280;7275;50.328;8.720;2023-04-22T05:21:01;99061.28;;;17.69;43.47
14383;BME280;7275;50.328;8.720;2023-04-22T05:23:29;99062.88;;;17.72;43.47
14383;BME280;7275;50.328;8.720;2023-04-22T05:25:58;99063.59;;;17.74;43.54
14383;BME280;7275;50.328;8.720;2023-04-22T05:28:26;99058.88;;;17.77;43.47
14383;BME280;7275;50.328;8.720;2023-04-22T05:30:53;99053.41;;;17.79;43.48
14383;BME280;7275;50.328;8.720;2023-04-22T05:33:20;99062.91;;;17.83;43.41
14383;BME280;7275;50.328;8.720;2023-04-22T05:35:48;99056.47;;;17.85;43.42
14383;BME280;7275;50.328;8.720;2023-04-22T05:38:16;99063.28;;;17.89;43.36
14383;BME280;7275;50.328;8.720;2023-04-22T05:40:44;99052.25;;;17.94;43.31
14383;BME280;7275;50.328;8.720;2023-04-22T05:43:13;99063.53;;;17.97;43.27
14383;BME280;7275;50.328;8.720;2023-04-22T05:45:40;99062.19;;;18.03;43.39
14383;BME280;7275;50.328;8.720;2023-04-22T05:48:08;99073.53;;;18.06;43.43
14383;BME280;7275;50.328;8.720;2023-04-22T05:50:35;99067.19;;;18.07;43.35
14383;BME280;7275;50.328;8.720;2023-04-22T05:53:03;99071.59;;;18.08;43.45
14383;BME280;7275;50.328;8.720;2023-04-22T05:55:30;99072.56;;;18.07;43.36
14383;BME280;7275;50.328;8.720;2023-04-22T05:57:58;99086.06;;;18.06;43.38
14383;BME280;7275;50.328;8.720;2023-04-22T06:00:27;99083.72;;;18.01;43.37
14383;BME280;7275;50.328;8.720;2023-04-22T06:02:54;99082.25;;;17.97;43.41
14383;BME280;7275;50.328;8.720;2023-04-22T06:05:22;99085.06;;;17.96;43.59
14383;BME280;7275;50.328;8.720;2023-04-22T06:07:50;99088.56;;;17.96;43.68
14383;BME280;7275;50.328;8.720;2023-04-22T06:10:17;99085.91;;;17.96;43.68
14383;BME280;7275;50.328;8.720;2023-04-22T06:12:45;99088.47;;;17.98;43.68
14383;BME280;7275;50.328;8.720;2023-04-22T06:15:12;99086.63;;;17.98;43.84
14383;BME280;7275;50.328;8.720;2023-04-22T06:17:41;99085.66;;;17.99;43.88
14383;BME280;7275;50.328;8.720;2023-04-22T06:20:10;99079.09;;;18.03;43.90
14383;BME280;7275;50.328;8.720;2023-04-22T06:22:38;99078.63;;;18.09;43.85
14383;BME280;7275;50.328;8.720;2023-04-22T06:25:05;99077.94;;;18.18;43.86
14383;BME280;7275;50.328;8.720;2023-04-22T06:27:33;99078.03;;;18.28;43.95
14383;BME280;7275;50.328;8.720;2023-04-22T06:30:01;99069.16;;;18.38;44.03
14383;BME280;7275;50.328;8.720;2023-04-22T06:32:28;99081.59;;;18.51;44.04
14383;BME280;7275;50.328;8.720;2023-04-22T06:34:57;99080.66;;;18.63;43.96
14383;BME280;7275;50.328;8.720;2023-04-22T06:37:25;99083.56;;;18.71;44.03
14383;BME280;7275;50.328;8.720;2023-04-22T06:39:53;99086.22;;;18.82;44.08
14383;BME280;7275;50.328;8.720;2023-04-22T06:42:21;99080.13;;;18.91;44.13
14383;BME280;7275;50.328;8.720;2023-04-22T06:44:48;99079.38;;;19.00;44.12
14383;BME280;7275;50.328;8.720;2023-04-22T06:47:15;99067.91;;;19.09;44.30
14383;BME280;7275;50.328;8.720;2023-04-22T06:49:44;99064.47;;;19.18;44.32
14383;BME280;7275;50.328;8.720;2023-04-22T06:52:12;99056.63;;;19.26;44.40
14383;BME280;7275;50.328;8.720;2023-04-22T06:54:40;99063.09;;;19.35;44.47
14383;BME280;7275;50.328;8.720;2023-04-22T06:57:07;99075.84;;;19.42;44.43
14383;BME280;7275;50.328;8.720;2023-04-22T06:59:35;99074.25;;;19.51;44.50
14383;BME280;7275;50.328;8.720;2023-04-22T07:02:03;99074.59;;;19.57;44.63
14383;BME280;7275;50.328;8.720;2023-04-22T07:04:31;99068.44;;;19.66;44.56
14383;BME280;7275;50.328;8.720;2023-04-22T07:06:58;99065.59;;;19.79;44.51
14383;BME280;7275;50.328;8.720;2023-04-22T07:09:27;99064.41;;;19.92;44.59
14383;BME280;7275;50.328;8.720;2023-04-22T07:11:54;99062.13;;;20.09;44.36
14383;BME280;7275;50.328;8.720;2023-04-22T07:14:24;99069.47;;;20.27;44.19
14383;BME280;7275;50.328;8.720;2023-04-22T07:16:51;99063.59;;;20.43;43.99
14383;BME280;7275;50.328;8.720;2023-04-22T07:19:19;99062.09;;;20.59;43.78
14383;BME280;7275;50.328;8.720;2023-04-22T07:21:47;99052.94;;;20.71;43.48
14383;BME280;7275;50.328;8.720;2023-04-22T07:24:14;99060.19;;;20.81;43.29
14383;BME280;7275;50.328;8.720;2023-04-22T07:26:43;99070.44;;;20.96;43.24
14383;BME280;7275;50.328;8.720;2023-04-22T07:29:11;99056.88;;;21.07;42.93
14383;BME280;7275;50.328;8.720;2023-04-22T07:31:39;99060.44;;;21.17;42.53
14383;BME280;7275;50.328;8.720;2023-04-22T07:34:06;99052.66;;;21.24;42.58
14383;BME280;7275;50.328;8.720;2023-04-22T07:36:35;99045.03;;;21.29;42.28
14383;BME280;7275;50.328;8.720;2023-04-22T07:39:03;99056.81;;;21.37;42.43
14383;BME280;7275;50.328;8.720;2023-04-22T07:41:30;99052.84;;;21.41;42.05
14383;BME280;7275;50.328;8.720;2023-04-22T07:43:59;99057.50;;;21.49;41.85
14383;BME280;7275;50.328;8.720;2023-04-22T07:46:28;99059.50;;;21.57;41.88
14383;BME280;7275;50.328;8.720;2023-04-22T07:48:55;99061.47;;;21.64;41.27
14383;BME280;7275;50.328;8.720;2023-04-22T07:51:23;99055.50;;;21.70;40.97
14383;BME280;7275;50.328;8.720;2023-04-22T07:53:51;99068.69;;;21.73;40.72
14383;BME280;7275;50.328;8.720;2023-04-22T07:56:18;99052.94;;;21.78;40.85
14383;BME280;7275;50.328;8.720;2023-04-22T07:58:46;99058.97;;;21.82;40.82
14383;BME280;7275;50.328;8.720;2023-04-22T08:01:14;99057.94;;;21.83;40.45
14383;BME280;7275;50.328;8.720;2023-04-22T08:03:45;99058.50;;;21.86;40.59
14383;BME280;7275;50.328;8.720;2023-04-22T08:06:13;99057.53;;;21.87;40.35
14383;BME280;7275;50.328;8.720;2023-04-22T08:08:40;99057.09;;;21.92;40.21
14383;BME280;7275;50.328;8.720;2023-04-22T08:13:35;99054.81;;;22.06;40.49
14383;BME280;7275;50.328;8.720;2023-04-22T08:16:03;99049.69;;;22.13;40.47
14383;BME280;7275;50.328;8.720;2023-04-22T08:18:34;99048.78;;;22.22;40.32
14383;BME280;7275;50.328;8.720;2023-04-22T08:21:01;99051.31;;;22.33;40.51
14383;BME280;7275;50.328;8.720;2023-04-22T08:23:29;99053.69;;;22.46;40.22
14383;BME280;7275;50.328;8.720;2023-04-22T08:25:56;99055.91;;;22.60;40.40
14383;BME280;7275;50.328;8.720;2023-04-22T08:28:24;99056.44;;;22.73;40.26
14383;BME280;7275;50.328;8.720;2023-04-22T08:30:52;99051.69;;;22.84;39.96
14383;BME280;7275;50.328;8.720;2023-04-22T08:33:19;99047.22;;;22.93;39.64
14383;BME280;7275;50.328;8.720;2023-04-22T08:35:49;99041.47;;;23.05;39.46
14383;BME280;7275;50.328;8.720;2023-04-22T08:38:16;99042.94;;;23.18;39.69
14383;BME280;7275;50.328;8.720;2023-04-22T08:40:45;99041.16;;;23.36;40.18
14383;BME280;7275;50.328;8.720;2023-04-22T08:43:12;99044.72;;;23.54;39.71
14383;BME280;7275;50.328;8.720;2023-04-22T08:45:41;99032.72;;;23.74;39.48
14383;BME280;7275;50.328;8.720;2023-04-22T08:48:09;99037.94;;;23.93;39.45
14383;BME280;7275;50.328;8.720;2023-04-22T08:50:37;99028.81;;;24.12;39.55
14383;BME280;7275;50.328;8.720;2023-04-22T08:53:07;99031.00;;;24.34;39.30
14383;BME280;7275;50.328;8.720;2023-04-22T08:55:35;99028.38;;;24.50;38.69
14383;BME280;7275;50.328;8.720;2023-04-22T08:58:03;99029.00;;;24.70;38.77
14383;BME280;7275;50.328;8.720;2023-04-22T09:00:31;99029.94;;;24.86;38.51
14383;BME280;7275;50.328;8.720;2023-04-22T09:03:00;99026.25;;;25.03;38.21
14383;BME280;7275;50.328;8.720;2023-04-22T09:05:31;99023.94;;;25.24;38.20
14383;BME280;7275;50.328;8.720;2023-04-22T09:07:59;99033.50;;;25.45;38.37
14383;BME280;7275;50.328;8.720;2023-04-22T09:10:30;99028.44;;;25.66;37.90
14383;BME280;7275;50.328;8.720;2023-04-22T09:13:00;99023.31;;;25.87;37.47
14383;BME280;7275;50.328;8.720;2023-04-22T09:15:29;99023.16;;;26.12;37.53
14383;BME280;7275;50.328;8.720;2023-04-22T09:17:57;99018.69;;;26.44;37.36
14383;BME280;7275;50.328;8.720;2023-04-22T09:20:26;99022.53;;;26.73;36.44
14383;BME280;7275;50.328;8.720;2023-04-22T09:22:55;99018.66;;;26.99;36.10
14383;BME280;7275;50.328;8.720;2023-04-22T09:25:24;99017.91;;;27.13;35.88
14383;BME280;7275;50.328;8.720;2023-04-22T09:27:55;99014.25;;;27.36;35.77
14383;BME280;7275;50.328;8.720;2023-04-22T09:30:24;99023.25;;;27.59;35.11
14383;BME280;7275;50.328;8.720;2023-04-22T09:32:53;99019.56;;;27.90;35.11
14383;BME280;7275;50.328;8.720;2023-04-22T09:35:29;99016.94;;;28.19;34.57
14383;BME280;7275;50.328;8.720;2023-04-22T09:37:58;99012.00;;;28.37;34.36
14383;BME280;7275;50.328;8.720;2023-04-22T09:40:27;99021.00;;;28.52;33.90
14383;BME280;7275;50.328;8.720;2023-04-22T09:42:57;99022.69;;;28.53;33.89
14383;BME280;7275;50.328;8.720;2023-04-22T09:45:29;99019.53;;;28.50;33.64
14383;BME280;7275;50.328;8.720;2023-04-22T09:48:01;99022.03;;;28.51;33.61
14383;BME280;7275;50.328;8.720;2023-04-22T09:50:29;99018.94;;;28.54;33.83
14383;BME280;7275;50.328;8.720;2023-04-22T09:52:58;99027.09;;;28.54;32.57
14383;BME280;7275;50.328;8.720;2023-04-22T09:55:27;99023.84;;;28.59;32.84
14383;BME280;7275;50.328;8.720;2023-04-22T09:57:56;99024.03;;;28.86;32.55
14383;BME280;7275;50.328;8.720;2023-04-22T10:00:27;99028.38;;;29.16;32.28
14383;BME280;7275;50.328;8.720;2023-04-22T10:02:55;99028.56;;;29.51;32.13
14383;BME280;7275;50.328;8.720;2023-04-22T10:05:23;99019.94;;;29.89;32.05
14383;BME280;7275;50.328;8.720;2023-04-22T10:07:52;99021.09;;;30.29;31.43
14383;BME280;7275;50.328;8.720;2023-04-22T10:10:20;99024.81;;;30.43;31.28
14383;BME280;7275;50.328;8.720;2023-04-22T10:12:47;99015.09;;;30.34;31.22
14383;BME280;7275;50.328;8.720;2023-04-22T10:15:16;99018.94;;;30.18;31.15
14383;BME280;7275;50.328;8.720;2023-04-22T10:17:44;99014.69;;;30.09;31.35
14383;BME280;7275;50.328;8.720;2023-04-22T10:20:15;99006.75;;;30.14;31.14
14383;BME280;7275;50.328;8.720;2023-04-22T10:22:44;99016.25;;;30.52;31.31
14383;BME280;7275;50.328;8.720;2023-04-22T10:25:12;99014.47;;;31.07;30.75
14383;BME280;7275;50.328;8.720;2023-04-22T10:27:51;98999.22;;;31.38;30.50
14383;BME280;7275;50.328;8.720;2023-04-22T10:30:27;99004.13;;;31.56;30.26
14383;BME280;7275;50.328;8.720;2023-04-22T10:33:34;98998.03;;;31.74;30.34
14383;BME280;7275;50.328;8.720;2023-04-22T10:36:06;98992.81;;;32.18;30.08
14383;BME280;7275;50.328;8.720;2023-04-22T10:38:35;98986.19;;;32.71;29.38
14383;BME280;7275;50.328;8.720;2023-04-22T10:41:03;98988.91;;;33.29;28.91
14383;BME280;7275;50.328;8.720;2023-04-22T10:43:40;98984.16;;;33.80;28.60
14383;BME280;7275;50.328;8.720;2023-04-22T10:49:20;98986.63;;;34.98;27.71
14383;BME280;7275;50.328;8.720;2023-04-22T10:51:49;98978.88;;;35.55;26.99
14383;BME280;7275;50.328;8.720;2023-04-22T10:54:57;98983.06;;;36.10;27.49
14383;BME280;7275;50.328;8.720;2023-04-22T10:57:39;98974.72;;;36.63;26.73
14383;BME280;7275;50.328;8.720;2023-04-22T11:00:29;98972.47;;;37.00;26.37
14383;BME280;7275;50.328;8.720;2023-04-22T11:03:24;98960.91;;;37.14;26.22
14383;BME280;7275;50.328;8.720;2023-04-22T11:06:14;98960.56;;;37.11;25.82
14383;BME280;7275;50.328;8.720;2023-04-22T11:08:43;98963.22;;;37.06;25.13
14383;BME280;7275;50.328;8.720;2023-04-22T11:11:11;98962.19;;;36.95;24.85
14383;BME280;7275;50.328;8.720;2023-04-22T11:13:40;98951.66;;;36.92;24.51
14383;BME280;7275;50.328;8.720;2023-04-22T11:16:09;98948.19;;;36.97;24.89
14383;BME280;7275;50.328;8.720;2023-04-22T11:18:37;98951.94;;;37.07;24.73
14383;BME280;7275;50.328;8.720;2023-04-22T11:21:05;98940.47;;;37.38;24.54
14383;BME280;7275;50.328;8.720;2023-04-22T11:23:35;98935.56;;;37.74;24.02
14383;BME280;7275;50.328;8.720;2023-04-22T11:26:04;98940.53;;;38.05;23.39
14383;BME280;7275;50.328;8.720;2023-04-22T11:28:32;98940.41;;;38.16;23.42
14383;BME280;7275;50.328;8.720;2023-04-22T11:31:01;98931.06;;;38.34;23.12
14383;BME280;7275;50.328;8.720;2023-04-22T11:33:28;98932.78;;;38.62;22.95
14383;BME280;7275;50.328;8.720;2023-04-22T11:35:57;98935.13;;;38.91;22.78
14383;BME280;7275;50.328;8.720;2023-04-22T11:38:25;98933.22;;;39.40;22.21
14383;BME280;7275;50.328;8.720;2023-04-22T11:40:55;98940.16;;;39.16;21.89
14383;BME280;7275;50.328;8.720;2023-04-22T11:43:23;98928.38;;;38.61;21.96
14383;BME280;7275;50.328;8.720;2023-04-22T11:45:51;98932.81;;;38.07;22.30
14383;BME280;7275;50.328;8.720;2023-04-22T11:48:21;98922.84;;;37.56;22.75
14383;BME280;7275;50.328;8.720;2023-04-22T11:51:06;98917.19;;;37.34;22.97
14383;BME280;7275;50.328;8.720;2023-04-22T11:53:34;98919.22;;;37.55;22.54
14383;BME280;7275;50.328;8.720;2023-04-22T11:56:03;98908.44;;;37.54;22.66
14383;BME280;7275;50.328;8.720;2023-04-22T11:58:31;98906.41;;;37.94;22.58
14383;BME280;7275;50.328;8.720;2023-04-22T12:00:58;98909.22;;;38.54;22.40
14383;BME280;7275;50.328;8.720;2023-04-22T12:03:27;98906.50;;;39.24;21.40
14383;BME280;7275;50.328;8.720;2023-04-22T12:05:57;98895.44;;;39.82;21.00
14383;BME280;7275;50.328;8.720;2023-04-22T12:08:29;98895.06;;;40.47;20.63
14383;BME280;7275;50.328;8.720;2023-04-22T12:10:58;98888.38;;;41.10;20.60
14383;BME280;7275;50.328;8.720;2023-04-22T12:13:29;98891.25;;;41.51;19.88
14383;BME280;7275;50.328;8.720;2023-04-22T12:15:59;98897.91;;;41.50;19.66
14383;BME280;7275;50.328;8.720;2023-04-22T12:18:30;98881.97;;;41.00;19.97
14383;BME280;7275;50.328;8.720;2023-04-22T12:21:01;98887.69;;;40.73;19.92
14383;BME280;7275;50.328;8.720;2023-04-22T12:23:40;98882.81;;;41.00;20.27
14383;BME280;7275;50.328;8.720;2023-04-22T12:26:07;98880.69;;;41.42;19.79
14383;BME280;7275;50.328;8.720;2023-04-22T12:28:37;98871.84;;;41.76;19.09
14383;BME280;7275;50.328;8.720;2023-04-22T12:31:06;98874.88;;;41.99;19.23
14383;BME280;7275;50.328;8.720;2023-04-22T12:33:35;98863.47;;;42.01;18.24
14383;BME280;7275;50.328;8.720;2023-04-22T12:36:03;98859.28;;;42.24;18.72
14383;BME280;7275;50.328;8.720;2023-04-22T12:38:32;98860.28;;;42.58;17.98
14383;BME280;7275;50.328;8.720;2023-04-22T12:41:00;98857.06;;;42.89;18.07
14383;BME280;7275;50.328;8.720;2023-04-22T12:43:28;98853.91;;;43.06;17.69
14383;BME280;7275;50.328;8.720;2023-04-22T12:45:58;98864.06;;;42.77;17.72
14383;BME280;7275;50.328;8.720;2023-04-22T12:48:26;98878.38;;;42.50;17.82
14383;BME280;7275;50.328;8.720;2023-04-22T12:50:53;98859.03;;;42.05;16.93
14383;BME280;7275;50.328;8.720;2023-04-22T12:53:22;98861.81;;;41.50;17.29
14383;BME280;7275;50.328;8.720;2023-04-22T12:55:50;98865.59;;;40.93;17.17
14383;BME280;7275;50.328;8.720;2023-04-22T12:58:18;98863.75;;;40.47;17.66
14383;BME280;7275;50.328;8.720;2023-04-22T13:00:45;98861.06;;;40.15;17.36
14383;BME280;7275;50.328;8.720;2023-04-22T13:03:14;98853.63;;;39.84;17.57
14383;BME280;7275;50.328;8.720;2023-04-22T13:05:42;98850.69;;;39.64;18.23
14383;BME280;7275;50.328;8.720;2023-04-22T13:08:10;98854.19;;;39.23;17.56
14383;BME280;7275;50.328;8.720;2023-04-22T13:10:38;98870.13;;;38.89;17.79
14383;BME280;7275;50.328;8.720;2023-04-22T13:13:05;98861.41;;;38.32;17.73
14383;BME280;7275;50.328;8.720;2023-04-22T13:15:36;98859.47;;;37.44;17.91
14383;BME280;7275;50.328;8.720;2023-04-22T13:18:04;98872.69;;;36.46;18.03
14383;BME280;7275;50.328;8.720;2023-04-22T13:20:33;98854.28;;;35.54;19.28
14383;BME280;7275;50.328;8.720;2023-04-22T13:23:01;98869.13;;;34.94;20.07